createdAt,value
2023-11-08T00:00:06.785Z,2.65
2023-11-08T00:02:39.597Z,2.70
2023-11-08T00:05:07.696Z,2.69
2023-11-08T00:07:34.674Z,2.75
2023-11-08T00:10:02.294Z,2.76
2023-11-08T00:12:29.294Z,2.90
2023-11-08T00:14:58.831Z,2.97
2023-11-08T00:17:27.432Z,3.13
2023-11-08T00:19:56.030Z,3.16
2023-11-08T00:22:23.756Z,3.24
2023-11-08T00:24:50.980Z,3.36
2023-11-08T00:27:18.036Z,3.42
2023-11-08T00:29:45.025Z,3.45
2023-11-08T00:32:12.001Z,3.51
2023-11-08T00:34:39.033Z,3.61
2023-11-08T00:37:07.268Z,3.62
2023-11-08T00:39:34.455Z,3.65
2023-11-08T00:42:01.465Z,3.71
2023-11-08T00:44:29.895Z,3.65
2023-11-08T00:46:56.987Z,3.68
2023-11-08T00:49:23.973Z,3.69
2023-11-08T00:51:51.216Z,3.70
2023-11-08T00:54:18.889Z,3.65
2023-11-08T00:56:45.945Z,3.72
2023-11-08T00:59:12.969Z,3.70
2023-11-08T01:01:39.968Z,3.75
2023-11-08T01:04:12.614Z,3.78
2023-11-08T01:06:40.505Z,3.77
2023-11-08T01:09:12.203Z,3.71
2023-11-08T01:11:39.323Z,3.68
2023-11-08T01:14:06.516Z,3.70
2023-11-08T01:16:33.591Z,3.71
2023-11-08T01:19:00.853Z,3.72
2023-11-08T01:21:28.099Z,3.70
2023-11-08T01:23:55.065Z,3.70
2023-11-08T01:26:22.138Z,3.70
2023-11-08T01:28:49.188Z,3.74
2023-11-08T01:31:16.230Z,3.72
2023-11-08T01:33:43.319Z,3.62
2023-11-08T01:36:10.619Z,3.63
2023-11-08T01:38:37.649Z,3.62
2023-11-08T01:41:04.719Z,3.60
2023-11-08T01:43:34.569Z,3.53
2023-11-08T01:46:26.584Z,3.58
2023-11-08T01:48:54.488Z,3.44
2023-11-08T01:51:22.872Z,3.49
2023-11-08T01:53:51.825Z,3.42
2023-11-08T01:56:19.371Z,3.42
2023-11-08T01:58:48.969Z,3.39
2023-11-08T02:01:19.128Z,3.39
2023-11-08T02:03:48.029Z,3.39
2023-11-08T02:06:17.401Z,3.36
2023-11-08T02:08:45.666Z,3.34
2023-11-08T02:11:14.329Z,3.35
2023-11-08T02:13:42.243Z,3.38
2023-11-08T02:16:09.461Z,3.39
2023-11-08T02:18:36.735Z,3.44
2023-11-08T02:21:04.528Z,3.39
2023-11-08T02:23:33.333Z,3.44
2023-11-08T02:26:00.744Z,3.52
2023-11-08T02:28:27.956Z,3.43
2023-11-08T02:30:56.432Z,3.56
2023-11-08T02:33:28.176Z,3.59
2023-11-08T02:35:56.130Z,3.71
2023-11-08T02:38:23.151Z,3.60
2023-11-08T02:40:50.257Z,3.73
2023-11-08T02:43:17.890Z,3.61
2023-11-08T02:45:45.815Z,3.68
2023-11-08T02:48:12.923Z,3.62
2023-11-08T02:50:41.001Z,3.62
2023-11-08T02:53:08.997Z,3.66
2023-11-08T02:55:38.377Z,3.62
2023-11-08T02:58:05.571Z,3.62
2023-11-08T03:00:32.741Z,3.54
2023-11-08T03:03:00.008Z,3.63
2023-11-08T03:05:27.091Z,3.57
2023-11-08T03:07:55.938Z,3.61
2023-11-08T03:10:23.518Z,3.64
2023-11-08T03:12:52.808Z,3.54
2023-11-08T03:15:22.874Z,3.59
2023-11-08T03:17:52.779Z,3.59
2023-11-08T03:20:20.939Z,3.52
2023-11-08T03:22:49.234Z,3.52
2023-11-08T03:25:18.677Z,3.62
2023-11-08T03:27:48.405Z,3.57
2023-11-08T03:30:18.382Z,3.56
2023-11-08T03:32:45.843Z,3.47
2023-11-08T03:35:16.471Z,3.48
2023-11-08T03:37:44.956Z,3.47
2023-11-08T03:40:14.105Z,3.50
2023-11-08T03:42:47.931Z,3.38
2023-11-08T03:45:15.175Z,3.38
2023-11-08T03:47:43.171Z,3.45
2023-11-08T03:50:10.952Z,3.34
2023-11-08T03:52:38.377Z,3.28
2023-11-08T03:55:06.742Z,3.28
2023-11-08T03:57:34.068Z,3.29
2023-11-08T04:00:01.189Z,3.19
2023-11-08T04:02:28.211Z,3.12
2023-11-08T04:04:55.225Z,3.03
2023-11-08T04:07:25.756Z,3.08
2023-11-08T04:09:52.934Z,3.05
2023-11-08T04:12:20.028Z,3.12
2023-11-08T04:14:47.057Z,3.13
2023-11-08T04:17:16.705Z,3.07
2023-11-08T04:19:47.466Z,3.13
2023-11-08T04:22:15.592Z,3.01
2023-11-08T04:24:44.051Z,3.08
2023-11-08T04:27:12.151Z,3.05
2023-11-08T04:29:39.340Z,3.13
2023-11-08T04:32:07.463Z,3.09
2023-11-08T04:37:04.411Z,2.97
2023-11-08T04:39:32.796Z,3.10
2023-11-08T04:41:59.768Z,3.07
2023-11-08T04:44:26.849Z,3.06
2023-11-08T04:46:54.063Z,3.02
2023-11-08T04:49:21.130Z,2.88
2023-11-08T04:51:48.219Z,2.87
2023-11-08T04:54:15.208Z,2.83
2023-11-08T04:56:42.928Z,2.80
2023-11-08T04:59:12.805Z,2.72
2023-11-08T05:01:40.406Z,2.69
2023-11-08T05:04:07.492Z,2.69
2023-11-08T05:06:34.589Z,2.67
2023-11-08T05:09:01.790Z,2.59
2023-11-08T05:11:30.137Z,2.54
2023-11-08T05:13:57.134Z,2.48
2023-11-08T05:16:24.723Z,2.44
2023-11-08T05:18:52.926Z,2.42
2023-11-08T05:21:24.832Z,2.40
2023-11-08T05:23:51.864Z,2.35
2023-11-08T05:26:20.123Z,2.34
2023-11-08T05:28:47.073Z,2.29
2023-11-08T05:31:14.072Z,2.23
2023-11-08T05:33:43.889Z,2.18
2023-11-08T05:36:11.448Z,2.16
2023-11-08T05:38:41.157Z,2.15
2023-11-08T05:41:08.220Z,2.05
2023-11-08T05:43:35.170Z,2.08
2023-11-08T05:46:02.127Z,1.99
2023-11-08T05:48:29.116Z,2.01
2023-11-08T05:50:56.089Z,1.97
2023-11-08T05:53:24.082Z,1.99
2023-11-08T05:55:51.457Z,1.97
2023-11-08T05:58:18.463Z,1.95
2023-11-08T06:00:45.513Z,1.89
2023-11-08T06:03:12.823Z,1.86
2023-11-08T06:05:39.868Z,1.91
2023-11-08T06:08:07.105Z,1.79
2023-11-08T06:10:34.967Z,1.85
2023-11-08T06:13:03.977Z,1.88
2023-11-08T06:15:31.068Z,1.79
2023-11-08T06:17:58.513Z,1.89
2023-11-08T06:20:25.630Z,1.85
2023-11-08T06:22:52.644Z,1.86
2023-11-08T06:25:19.812Z,1.87
2023-11-08T06:27:49.073Z,1.83
2023-11-08T06:30:18.269Z,1.81
2023-11-08T06:32:45.631Z,1.66
2023-11-08T06:35:12.723Z,1.74
2023-11-08T06:37:39.809Z,1.70
2023-11-08T06:40:08.978Z,1.74
2023-11-08T06:42:36.422Z,1.77
2023-11-08T06:45:08.562Z,1.69
2023-11-08T06:47:35.530Z,1.64
2023-11-08T06:50:04.027Z,1.76
2023-11-08T06:52:31.092Z,1.70
2023-11-08T06:54:58.126Z,1.62
2023-11-08T06:57:25.170Z,1.69
2023-11-08T06:59:52.152Z,1.70
2023-11-08T07:02:21.258Z,1.73
2023-11-08T07:04:48.290Z,1.68
2023-11-08T07:07:15.370Z,1.73
2023-11-08T07:09:42.386Z,1.72
2023-11-08T07:12:12.408Z,1.73
2023-11-08T07:14:39.438Z,1.74
2023-11-08T07:17:07.932Z,1.73
2023-11-08T07:19:35.033Z,1.74
2023-11-08T07:22:02.124Z,1.77
2023-11-08T07:24:29.182Z,1.89
2023-11-08T07:26:56.192Z,1.85
2023-11-08T07:29:23.680Z,1.87
2023-11-08T07:31:53.588Z,1.94
2023-11-08T07:34:23.245Z,1.94
2023-11-08T07:36:52.701Z,2.03
2023-11-08T07:39:27.031Z,1.99
2023-11-08T07:41:55.598Z,2.04
2023-11-08T07:44:22.725Z,2.07
2023-11-08T07:46:49.873Z,2.14
2023-11-08T07:49:17.544Z,2.17
2023-11-08T07:51:45.347Z,2.25
2023-11-08T07:54:12.579Z,2.39
2023-11-08T07:56:39.728Z,2.44
2023-11-08T07:59:06.938Z,2.56
2023-11-08T08:01:34.194Z,2.71
2023-11-08T08:04:01.814Z,2.85
2023-11-08T08:06:29.042Z,2.94
2023-11-08T08:08:58.502Z,3.02
2023-11-08T08:11:26.037Z,3.22
2023-11-08T08:13:53.812Z,3.32
2023-11-08T08:16:23.802Z,3.50
2023-11-08T08:18:50.959Z,3.59
2023-11-08T08:21:19.578Z,3.78
2023-11-08T08:23:51.735Z,3.96
2023-11-08T08:26:25.219Z,4.07
2023-11-08T08:28:52.372Z,4.08
2023-11-08T08:31:20.293Z,4.14
2023-11-08T08:33:47.688Z,4.23
2023-11-08T08:36:14.790Z,4.33
2023-11-08T08:38:41.760Z,4.42
2023-11-08T08:41:08.795Z,4.47
2023-11-08T08:43:36.459Z,4.63
2023-11-08T08:46:03.487Z,4.74
2023-11-08T08:48:30.533Z,4.79
2023-11-08T08:50:57.700Z,4.87
2023-11-08T08:53:25.785Z,4.94
2023-11-08T08:55:52.881Z,5.05
2023-11-08T08:58:19.901Z,5.22
2023-11-08T09:00:46.875Z,5.40
2023-11-08T09:03:16.416Z,5.55
2023-11-08T09:05:43.855Z,5.61
2023-11-08T09:08:10.867Z,5.76
2023-11-08T09:10:38.733Z,5.80
2023-11-08T09:13:06.655Z,6.04
2023-11-08T09:15:33.868Z,6.13
2023-11-08T09:18:00.958Z,6.34
2023-11-08T09:20:27.946Z,6.49
2023-11-08T09:22:55.237Z,6.52
2023-11-08T09:25:22.642Z,6.63
2023-11-08T09:27:49.791Z,6.79
2023-11-08T09:30:17.148Z,6.83
2023-11-08T09:32:46.724Z,6.97
2023-11-08T09:35:14.048Z,7.07
2023-11-08T09:37:41.171Z,7.12
2023-11-08T09:40:12.385Z,7.11
2023-11-08T09:42:40.050Z,7.21
2023-11-08T09:45:13.569Z,7.37
2023-11-08T09:47:43.417Z,7.52
2023-11-08T09:50:13.513Z,7.57
2023-11-08T09:52:41.353Z,7.72
2023-11-08T09:55:13.718Z,7.86
2023-11-08T09:57:44.906Z,7.97
2023-11-08T10:00:13.318Z,8.01
2023-11-08T10:02:42.055Z,8.12
2023-11-08T10:05:09.547Z,8.27
2023-11-08T10:07:39.296Z,8.38
2023-11-08T10:10:10.869Z,8.61
2023-11-08T10:12:38.779Z,8.74
2023-11-08T10:15:08.453Z,8.79
2023-11-08T10:19:30.624Z,8.90
2023-11-08T10:20:37.203Z,8.89
2023-11-08T10:23:09.021Z,8.89
2023-11-08T10:25:36.257Z,8.88
2023-11-08T10:28:07.660Z,9.13
2023-11-08T10:30:41.556Z,9.31
2023-11-08T10:33:13.816Z,9.40
2023-11-08T10:35:44.014Z,9.41
2023-11-08T10:38:12.199Z,9.35
2023-11-08T10:40:39.530Z,9.42
2023-11-08T10:43:07.207Z,9.54
2023-11-08T10:45:34.734Z,9.54
2023-11-08T10:48:02.202Z,9.61
2023-11-08T10:50:29.403Z,9.68
2023-11-08T10:52:58.308Z,9.73
2023-11-08T10:55:27.194Z,9.95
2023-11-08T10:58:04.719Z,10.07
2023-11-08T11:00:36.147Z,10.21
2023-11-08T11:03:10.762Z,10.37
2023-11-08T11:05:44.017Z,10.47
2023-11-08T11:08:20.371Z,10.45
2023-11-08T11:10:48.237Z,10.40
2023-11-08T11:13:30.267Z,10.34
2023-11-08T11:16:19.046Z,10.22
2023-11-08T11:18:54.255Z,10.34
2023-11-08T11:21:25.896Z,10.41
2023-11-08T11:23:53.316Z,10.54
2023-11-08T11:26:45.551Z,10.43
2023-11-08T11:29:19.513Z,10.44
2023-11-08T11:31:47.447Z,10.67
2023-11-08T11:34:27.901Z,10.85
2023-11-08T11:37:14.842Z,11.04
2023-11-08T11:39:50.322Z,11.09
2023-11-08T11:42:18.256Z,11.06
2023-11-08T11:45:00.491Z,11.26
2023-11-08T11:47:30.848Z,11.28
2023-11-08T11:50:08.781Z,11.41
2023-11-08T11:52:37.683Z,11.45
2023-11-08T11:55:08.032Z,11.60
2023-11-08T11:57:36.435Z,11.68
2023-11-08T12:00:06.618Z,11.77
2023-11-08T12:02:37.379Z,11.70
2023-11-08T12:05:06.918Z,11.74
2023-11-08T12:07:35.342Z,11.74
2023-11-08T12:10:08.792Z,11.67
2023-11-08T12:12:36.367Z,11.66
2023-11-08T12:15:16.583Z,11.59
2023-11-08T12:17:54.864Z,11.32
2023-11-08T12:20:23.258Z,11.13
2023-11-08T12:22:52.469Z,11.04
2023-11-08T12:25:23.658Z,10.96
2023-11-08T12:27:56.128Z,10.89
2023-11-08T12:30:25.531Z,10.76
2023-11-08T12:32:52.849Z,10.52
2023-11-08T12:35:19.970Z,10.29
2023-11-08T12:37:47.226Z,10.33
2023-11-08T12:40:33.526Z,10.42
2023-11-08T12:43:57.227Z,10.45
2023-11-08T12:46:36.599Z,10.26
2023-11-08T12:48:59.746Z,10.32
2023-11-08T12:51:31.438Z,10.26
2023-11-08T12:53:58.430Z,10.30
2023-11-08T12:56:25.597Z,10.41
2023-11-08T12:58:52.639Z,10.59
2023-11-08T13:01:21.023Z,10.88
2023-11-08T13:03:48.073Z,11.17
2023-11-08T13:06:15.086Z,11.31
2023-11-08T13:08:42.217Z,11.49
2023-11-08T13:11:09.709Z,11.52
2023-11-08T13:13:37.259Z,11.79
2023-11-08T13:16:07.148Z,11.95
2023-11-08T13:18:34.453Z,12.06
2023-11-08T13:21:01.473Z,12.24
2023-11-08T13:24:00.756Z,12.30
2023-11-08T13:26:15.934Z,12.48
2023-11-08T13:28:46.871Z,12.40
2023-11-08T13:31:14.564Z,12.39
2023-11-08T13:33:43.002Z,12.36
2023-11-08T13:36:11.171Z,12.29
2023-11-08T13:38:38.874Z,12.25
2023-11-08T13:41:06.559Z,12.25
2023-11-08T13:43:35.960Z,12.19
2023-11-08T13:46:03.739Z,12.26
2023-11-08T13:48:31.405Z,12.27
2023-11-08T13:51:01.348Z,12.38
2023-11-08T13:53:28.599Z,12.45
2023-11-08T13:55:55.583Z,12.56
2023-11-08T13:58:29.371Z,12.63
2023-11-08T14:01:08.068Z,12.67
2023-11-08T14:03:37.173Z,12.68
2023-11-08T14:06:06.431Z,12.71
2023-11-08T14:08:33.961Z,12.57
2023-11-08T14:11:00.965Z,12.55
2023-11-08T14:13:28.050Z,12.30
2023-11-08T14:15:55.253Z,12.24
2023-11-08T14:18:22.300Z,12.15
2023-11-08T14:20:49.843Z,12.21
2023-11-08T14:23:17.316Z,12.18
2023-11-08T14:25:44.458Z,12.32
2023-11-08T14:28:11.544Z,12.34
2023-11-08T14:30:38.701Z,12.39
2023-11-08T14:33:06.298Z,12.44
2023-11-08T14:35:35.211Z,12.30
2023-11-08T14:38:03.039Z,12.35
2023-11-08T14:40:30.355Z,12.32
2023-11-08T14:42:57.460Z,12.36
2023-11-08T14:45:24.565Z,12.39
2023-11-08T14:47:52.533Z,12.37
2023-11-08T14:50:22.283Z,12.53
2023-11-08T14:52:51.458Z,12.48
2023-11-08T14:55:18.958Z,12.26
2023-11-08T14:57:46.180Z,12.00
2023-11-08T15:00:13.893Z,11.85
2023-11-08T15:02:40.981Z,11.65
2023-11-08T15:05:09.026Z,11.41
2023-11-08T15:09:42.588Z,11.25
2023-11-08T15:10:23.458Z,11.06
2023-11-08T15:12:50.536Z,10.94
2023-11-08T15:15:18.419Z,10.68
2023-11-08T15:17:46.334Z,10.57
2023-11-08T15:20:13.544Z,10.40
2023-11-08T15:22:41.623Z,10.01
2023-11-08T15:25:10.558Z,10.00
2023-11-08T15:27:38.061Z,9.89
2023-11-08T15:30:09.397Z,9.86
2023-11-08T15:32:36.661Z,9.69
2023-11-08T15:35:03.998Z,9.59
2023-11-08T15:37:31.141Z,9.50
2023-11-08T15:39:58.278Z,9.37
2023-11-08T15:42:25.283Z,9.18
2023-11-08T15:44:52.502Z,9.18
2023-11-08T15:47:20.871Z,9.00
2023-11-08T15:49:48.243Z,8.88
2023-11-08T15:52:15.376Z,8.79
2023-11-08T15:54:42.497Z,8.73
2023-11-08T15:57:09.684Z,8.58
2023-11-08T15:59:36.639Z,8.44
2023-11-08T16:02:05.155Z,8.31
2023-11-08T16:04:32.423Z,8.20
2023-11-08T16:06:59.574Z,8.06
2023-11-08T16:09:32.273Z,7.78
2023-11-08T16:12:00.245Z,7.79
2023-11-08T16:14:27.390Z,7.70
2023-11-08T16:16:54.478Z,7.57
2023-11-08T16:19:21.716Z,7.36
2023-11-08T16:21:52.448Z,7.42
2023-11-08T16:24:19.522Z,7.18
2023-11-08T16:26:48.136Z,7.12
2023-11-08T16:29:49.979Z,7.00
2023-11-08T16:32:34.056Z,6.88
2023-11-08T16:34:52.854Z,6.74
2023-11-08T16:37:20.159Z,6.67
2023-11-08T16:39:47.193Z,6.55
2023-11-08T16:42:17.098Z,6.58
2023-11-08T16:44:46.250Z,6.42
2023-11-08T16:47:13.291Z,6.31
2023-11-08T16:49:47.570Z,6.27
2023-11-08T16:52:15.034Z,6.13
2023-11-08T16:54:42.122Z,6.08
2023-11-08T16:57:10.772Z,6.01
2023-11-08T16:59:38.608Z,5.94
2023-11-08T17:02:06.008Z,5.78
2023-11-08T17:04:37.880Z,5.76
2023-11-08T17:07:05.359Z,5.72
2023-11-08T17:09:37.017Z,5.61
2023-11-08T17:12:07.194Z,5.54
2023-11-08T17:14:37.796Z,5.49
2023-11-08T17:17:05.083Z,5.39
2023-11-08T17:19:32.603Z,5.32
2023-11-08T17:21:59.793Z,5.19
2023-11-08T17:24:27.103Z,5.10
2023-11-08T17:26:54.171Z,5.09
2023-11-08T17:29:21.129Z,5.04
2023-11-08T17:31:48.657Z,4.92
2023-11-08T17:34:15.719Z,4.81
2023-11-08T17:36:42.895Z,4.71
2023-11-08T17:39:10.250Z,4.64
2023-11-08T17:41:38.214Z,4.52
2023-11-08T17:44:05.247Z,4.44
2023-11-08T17:46:32.217Z,4.35
2023-11-08T17:49:00.890Z,4.37
2023-11-08T17:51:28.234Z,4.31
2023-11-08T17:53:55.231Z,4.22
2023-11-08T17:56:22.290Z,4.11
2023-11-08T17:58:49.298Z,4.05
2023-11-08T18:01:18.091Z,4.06
2023-11-08T18:03:46.630Z,4.01
2023-11-08T18:06:17.225Z,3.96
2023-11-08T18:08:45.097Z,3.88
2023-11-08T18:11:12.094Z,3.87
2023-11-08T18:13:39.088Z,3.78
2023-11-08T18:16:06.929Z,3.79
2023-11-08T18:18:33.948Z,3.72
2023-11-08T18:21:00.947Z,3.67
2023-11-08T18:23:27.979Z,3.59
2023-11-08T18:25:55.032Z,3.50
2023-11-08T18:28:22.011Z,3.52
2023-11-08T18:30:49.258Z,3.46
2023-11-08T18:33:19.246Z,3.44
2023-11-08T18:35:47.661Z,3.43
2023-11-08T18:38:14.765Z,3.37
2023-11-08T18:40:41.812Z,3.24
2023-11-08T18:43:08.806Z,3.29
2023-11-08T18:45:36.511Z,3.31
2023-11-08T18:48:04.104Z,3.22
2023-11-08T18:50:31.219Z,3.14
2023-11-08T18:52:58.200Z,3.12
2023-11-08T18:55:26.677Z,3.09
2023-11-08T18:57:54.930Z,2.93
2023-11-08T19:00:24.375Z,2.94
2023-11-08T19:02:53.037Z,2.92
2023-11-08T19:05:21.101Z,2.90
2023-11-08T19:07:48.792Z,2.86
2023-11-08T19:10:15.902Z,2.90
2023-11-08T19:12:44.405Z,2.88
2023-11-08T19:15:13.185Z,2.81
2023-11-08T19:17:41.925Z,2.77
2023-11-08T19:20:11.036Z,2.73
2023-11-08T19:22:38.749Z,2.65
2023-11-08T19:25:07.043Z,2.62
2023-11-08T19:27:37.478Z,2.57
2023-11-08T19:30:05.640Z,2.56
2023-11-08T19:32:32.971Z,2.52
2023-11-08T19:35:00.017Z,2.48
2023-11-08T19:37:27.028Z,2.42
2023-11-08T19:39:53.995Z,2.39
2023-11-08T19:42:21.009Z,2.28
2023-11-08T19:44:50.087Z,2.32
2023-11-08T19:47:17.046Z,2.23
2023-11-08T19:49:44.715Z,2.19
2023-11-08T19:52:12.566Z,2.16
2023-11-08T19:54:41.117Z,2.05
2023-11-08T19:57:08.312Z,2.13
2023-11-08T19:59:35.277Z,2.05
2023-11-08T20:02:03.967Z,2.01
2023-11-08T20:04:31.877Z,1.96
2023-11-08T20:06:59.783Z,1.91
2023-11-08T20:09:27.424Z,1.89
2023-11-08T20:11:54.523Z,1.88
2023-11-08T20:14:21.682Z,1.89
2023-11-08T20:16:48.642Z,1.82
2023-11-08T20:19:15.992Z,1.73
2023-11-08T20:21:43.060Z,1.71
2023-11-08T20:24:10.799Z,1.54
2023-11-08T20:26:38.141Z,1.61
2023-11-08T20:29:05.217Z,1.58
2023-11-08T20:31:32.582Z,1.58
2023-11-08T20:33:59.582Z,1.55
2023-11-08T20:36:26.874Z,1.62
2023-11-08T20:38:53.892Z,1.59
2023-11-08T20:41:20.856Z,1.49
2023-11-08T20:43:47.815Z,1.50
2023-11-08T20:46:17.135Z,1.53
2023-11-08T20:48:45.739Z,1.42
2023-11-08T20:51:13.219Z,1.46
2023-11-08T20:53:43.324Z,1.36
2023-11-08T20:56:11.394Z,1.25
2023-11-08T20:58:40.146Z,1.24
2023-11-08T21:01:07.715Z,1.13
2023-11-08T21:03:34.759Z,1.14
2023-11-08T21:06:02.350Z,1.17
2023-11-08T21:08:30.483Z,1.16
2023-11-08T21:10:57.478Z,1.14
2023-11-08T21:13:24.791Z,1.20
2023-11-08T21:15:51.836Z,1.17
2023-11-08T21:18:20.947Z,1.14
2023-11-08T21:20:50.855Z,1.05
2023-11-08T21:23:17.866Z,0.91
2023-11-08T21:25:44.858Z,1.05
2023-11-08T21:28:11.947Z,1.01
2023-11-08T21:30:39.148Z,0.99
2023-11-08T21:33:07.066Z,0.98
2023-11-08T21:35:34.224Z,0.84
2023-11-08T21:38:02.083Z,0.82
2023-11-08T21:40:29.166Z,0.79
2023-11-08T21:42:56.174Z,0.75
2023-11-08T21:45:23.227Z,0.69
2023-11-08T21:47:50.235Z,0.66
2023-11-08T21:50:17.373Z,0.62
2023-11-08T21:52:44.475Z,0.65
2023-11-08T21:55:14.638Z,0.62
2023-11-08T21:57:42.164Z,0.52
2023-11-08T22:00:11.403Z,0.51
2023-11-08T22:02:39.361Z,0.47
2023-11-08T22:05:09.470Z,0.49
2023-11-08T22:07:36.569Z,0.52
2023-11-08T22:10:03.788Z,0.55
2023-11-08T22:12:30.782Z,0.47
2023-11-08T22:15:00.356Z,0.46
2023-11-08T22:17:27.434Z,0.37
2023-11-08T22:19:54.591Z,0.31
2023-11-08T22:22:21.644Z,0.27
2023-11-08T22:24:48.862Z,0.23
2023-11-08T22:27:15.926Z,0.21
2023-11-08T22:29:42.962Z,0.33
2023-11-08T22:32:10.119Z,0.34
2023-11-08T22:34:37.094Z,0.34
2023-11-08T22:37:04.542Z,0.30
2023-11-08T22:39:32.541Z,0.32
2023-11-08T22:41:59.581Z,0.31
2023-11-08T22:44:26.659Z,0.23
2023-11-08T22:46:53.704Z,0.18
2023-11-08T22:49:21.063Z,0.12
2023-11-08T22:51:48.219Z,0.04
2023-11-08T22:54:15.202Z,-0.01
2023-11-08T22:56:42.342Z,0.02
2023-11-08T22:59:10.904Z,0.04
2023-11-08T23:01:38.632Z,0.02
2023-11-08T23:04:06.355Z,0.05
2023-11-08T23:06:34.128Z,0.04
2023-11-08T23:09:07.112Z,0.02
2023-11-08T23:11:35.563Z,-0.02
2023-11-08T23:14:03.030Z,-0.04
2023-11-08T23:16:30.079Z,-0.07
2023-11-08T23:18:57.278Z,-0.12
2023-11-08T23:21:24.449Z,-0.07
2023-11-08T23:23:52.763Z,-0.23
2023-11-08T23:26:20.460Z,-0.16
2023-11-08T23:28:47.819Z,-0.23
2023-11-08T23:31:14.837Z,-0.16
2023-11-08T23:33:41.868Z,-0.18
2023-11-08T23:36:13.894Z,-0.20
2023-11-08T23:38:45.369Z,-0.13
2023-11-08T23:41:12.383Z,-0.14
2023-11-08T23:43:39.442Z,-0.18
2023-11-08T23:46:07.095Z,-0.16
2023-11-08T23:48:34.194Z,-0.15
2023-11-08T23:51:01.246Z,-0.12
2023-11-08T23:53:28.449Z,-0.22
2023-11-08T23:55:55.484Z,-0.22
2023-11-08T23:58:22.701Z,-0.23
